sensor_id;sensor_type;location;lat;lon;timestamp;P1;durP1;ratioP1;P2;durP2;ratioP2
71303;SDS011;59091;47.446;19.148;2023-05-27T00:00:29;9.25;;;7.10;;
71303;SDS011;59091;47.446;19.148;2023-05-27T00:02:57;9.48;;;7.15;;
71303;SDS011;59091;47.446;19.148;2023-05-27T00:05:22;9.57;;;6.45;;
71303;SDS011;59091;47.446;19.148;2023-05-27T00:07:48;9.80;;;6.95;;
71303;SDS011;59091;47.446;19.148;2023-05-27T00:10:13;10.20;;;7.38;;
71303;SDS011;59091;47.446;19.148;2023-05-27T00:12:39;8.73;;;7.43;;
71303;SDS011;59091;47.446;19.148;2023-05-27T00:15:04;8.40;;;7.13;;
71303;SDS011;59091;47.446;19.148;2023-05-27T00:17:30;8.70;;;6.88;;
71303;SDS011;59091;47.446;19.148;2023-05-27T00:19:55;13.43;;;7.70;;
71303;SDS011;59091;47.446;19.148;2023-05-27T00:22:21;7.90;;;7.05;;
71303;SDS011;59091;47.446;19.148;2023-05-27T00:24:48;8.98;;;6.90;;
71303;SDS011;59091;47.446;19.148;2023-05-27T00:27:13;9.88;;;7.07;;
71303;SDS011;59091;47.446;19.148;2023-05-27T00:29:39;8.90;;;6.88;;
71303;SDS011;59091;47.446;19.148;2023-05-27T00:32:04;9.02;;;6.55;;
71303;SDS011;59091;47.446;19.148;2023-05-27T00:34:30;8.68;;;7.10;;
71303;SDS011;59091;47.446;19.148;2023-05-27T00:36:56;11.55;;;6.75;;
71303;SDS011;59091;47.446;19.148;2023-05-27T00:39:22;11.05;;;6.90;;
71303;SDS011;59091;47.446;19.148;2023-05-27T00:41:48;7.65;;;6.85;;
71303;SDS011;59091;47.446;19.148;2023-05-27T00:44:15;9.77;;;7.15;;
71303;SDS011;59091;47.446;19.148;2023-05-27T00:46:41;10.10;;;7.07;;
71303;SDS011;59091;47.446;19.148;2023-05-27T00:49:07;8.32;;;7.20;;
71303;SDS011;59091;47.446;19.148;2023-05-27T00:51:33;8.25;;;6.88;;
71303;SDS011;59091;47.446;19.148;2023-05-27T00:53:58;9.52;;;7.18;;
71303;SDS011;59091;47.446;19.148;2023-05-27T00:56:24;9.73;;;6.90;;
71303;SDS011;59091;47.446;19.148;2023-05-27T00:58:50;12.73;;;7.57;;
71303;SDS011;59091;47.446;19.148;2023-05-27T01:01:16;10.25;;;7.05;;
71303;SDS011;59091;47.446;19.148;2023-05-27T01:03:42;8.65;;;7.65;;
71303;SDS011;59091;47.446;19.148;2023-05-27T01:11:36;12.48;;;7.05;;
71303;SDS011;59091;47.446;19.148;2023-05-27T01:14:07;10.43;;;8.00;;
71303;SDS011;59091;47.446;19.148;2023-05-27T01:16:36;8.25;;;6.97;;
71303;SDS011;59091;47.446;19.148;2023-05-27T01:19:12;9.65;;;7.55;;
71303;SDS011;59091;47.446;19.148;2023-05-27T01:21:39;12.07;;;7.47;;
71303;SDS011;59091;47.446;19.148;2023-05-27T01:24:09;9.25;;;7.20;;
71303;SDS011;59091;47.446;19.148;2023-05-27T01:26:36;9.48;;;7.53;;
71303;SDS011;59091;47.446;19.148;2023-05-27T01:29:01;13.80;;;7.65;;
71303;SDS011;59091;47.446;19.148;2023-05-27T01:31:34;14.40;;;7.57;;
71303;SDS011;59091;47.446;19.148;2023-05-27T01:34:09;9.30;;;7.40;;
71303;SDS011;59091;47.446;19.148;2023-05-27T01:36:49;12.27;;;7.45;;
71303;SDS011;59091;47.446;19.148;2023-05-27T01:39:20;7.57;;;6.82;;
71303;SDS011;59091;47.446;19.148;2023-05-27T01:41:48;9.30;;;7.93;;
71303;SDS011;59091;47.446;19.148;2023-05-27T01:44:15;11.35;;;7.30;;
71303;SDS011;59091;47.446;19.148;2023-05-27T01:46:42;13.45;;;7.57;;
71303;SDS011;59091;47.446;19.148;2023-05-27T01:49:08;8.60;;;7.13;;
71303;SDS011;59091;47.446;19.148;2023-05-27T01:51:34;12.98;;;7.63;;
71303;SDS011;59091;47.446;19.148;2023-05-27T01:53:59;12.75;;;7.28;;
71303;SDS011;59091;47.446;19.148;2023-05-27T01:56:25;10.52;;;8.07;;
71303;SDS011;59091;47.446;19.148;2023-05-27T01:58:50;12.15;;;7.28;;
71303;SDS011;59091;47.446;19.148;2023-05-27T02:01:16;12.40;;;7.05;;
71303;SDS011;59091;47.446;19.148;2023-05-27T02:03:41;9.43;;;7.88;;
71303;SDS011;59091;47.446;19.148;2023-05-27T02:06:07;9.23;;;6.72;;
71303;SDS011;59091;47.446;19.148;2023-05-27T02:08:32;10.38;;;7.65;;
71303;SDS011;59091;47.446;19.148;2023-05-27T02:10:58;10.98;;;7.85;;
71303;SDS011;59091;47.446;19.148;2023-05-27T02:13:24;10.07;;;7.85;;
71303;SDS011;59091;47.446;19.148;2023-05-27T02:15:50;12.32;;;7.45;;
71303;SDS011;59091;47.446;19.148;2023-05-27T02:18:15;10.52;;;7.45;;
71303;SDS011;59091;47.446;19.148;2023-05-27T02:20:41;12.40;;;8.00;;
71303;SDS011;59091;47.446;19.148;2023-05-27T02:23:07;10.88;;;7.53;;
71303;SDS011;59091;47.446;19.148;2023-05-27T02:25:32;10.20;;;7.43;;
71303;SDS011;59091;47.446;19.148;2023-05-27T02:27:58;10.18;;;7.57;;
71303;SDS011;59091;47.446;19.148;2023-05-27T02:30:27;9.55;;;7.57;;
71303;SDS011;59091;47.446;19.148;2023-05-27T02:32:56;9.52;;;8.10;;
71303;SDS011;59091;47.446;19.148;2023-05-27T02:35:22;11.18;;;8.35;;
71303;SDS011;59091;47.446;19.148;2023-05-27T02:37:47;9.00;;;7.53;;
71303;SDS011;59091;47.446;19.148;2023-05-27T02:40:22;11.02;;;8.25;;
71303;SDS011;59091;47.446;19.148;2023-05-27T02:42:51;12.63;;;8.23;;
71303;SDS011;59091;47.446;19.148;2023-05-27T02:45:17;10.80;;;8.23;;
71303;SDS011;59091;47.446;19.148;2023-05-27T02:47:42;10.73;;;7.80;;
71303;SDS011;59091;47.446;19.148;2023-05-27T02:50:08;18.10;;;8.18;;
71303;SDS011;59091;47.446;19.148;2023-05-27T02:52:33;15.40;;;8.38;;
71303;SDS011;59091;47.446;19.148;2023-05-27T02:54:59;11.40;;;8.00;;
71303;SDS011;59091;47.446;19.148;2023-05-27T02:57:24;9.85;;;8.35;;
71303;SDS011;59091;47.446;19.148;2023-05-27T02:59:50;15.13;;;8.30;;
71303;SDS011;59091;47.446;19.148;2023-05-27T03:02:15;11.52;;;8.10;;
71303;SDS011;59091;47.446;19.148;2023-05-27T03:04:40;16.77;;;8.52;;
71303;SDS011;59091;47.446;19.148;2023-05-27T03:07:06;8.93;;;7.78;;
71303;SDS011;59091;47.446;19.148;2023-05-27T03:09:31;15.02;;;8.50;;
71303;SDS011;59091;47.446;19.148;2023-05-27T03:11:57;9.93;;;8.10;;
71303;SDS011;59091;47.446;19.148;2023-05-27T03:14:22;16.20;;;8.57;;
71303;SDS011;59091;47.446;19.148;2023-05-27T03:16:48;10.32;;;7.82;;
71303;SDS011;59091;47.446;19.148;2023-05-27T03:19:13;11.98;;;8.40;;
71303;SDS011;59091;47.446;19.148;2023-05-27T03:21:38;14.15;;;8.20;;
71303;SDS011;59091;47.446;19.148;2023-05-27T03:24:04;12.27;;;8.30;;
71303;SDS011;59091;47.446;19.148;2023-05-27T03:26:30;9.48;;;7.80;;
71303;SDS011;59091;47.446;19.148;2023-05-27T03:28:55;11.93;;;8.35;;
71303;SDS011;59091;47.446;19.148;2023-05-27T03:31:21;14.52;;;8.68;;
71303;SDS011;59091;47.446;19.148;2023-05-27T03:33:46;11.05;;;8.13;;
71303;SDS011;59091;47.446;19.148;2023-05-27T03:36:12;13.90;;;8.20;;
71303;SDS011;59091;47.446;19.148;2023-05-27T03:38:37;12.10;;;8.35;;
71303;SDS011;59091;47.446;19.148;2023-05-27T03:41:03;12.70;;;8.20;;
71303;SDS011;59091;47.446;19.148;2023-05-27T03:43:28;13.85;;;8.27;;
71303;SDS011;59091;47.446;19.148;2023-05-27T03:45:54;10.50;;;7.90;;
71303;SDS011;59091;47.446;19.148;2023-05-27T03:48:19;17.00;;;8.68;;
71303;SDS011;59091;47.446;19.148;2023-05-27T03:50:44;10.98;;;8.20;;
71303;SDS011;59091;47.446;19.148;2023-05-27T03:53:10;13.95;;;8.38;;
71303;SDS011;59091;47.446;19.148;2023-05-27T03:55:35;11.27;;;8.20;;
71303;SDS011;59091;47.446;19.148;2023-05-27T03:58:01;10.40;;;7.80;;
71303;SDS011;59091;47.446;19.148;2023-05-27T04:00:26;14.73;;;8.45;;
71303;SDS011;59091;47.446;19.148;2023-05-27T04:02:53;15.13;;;8.02;;
71303;SDS011;59091;47.446;19.148;2023-05-27T04:05:18;11.23;;;8.10;;
71303;SDS011;59091;47.446;19.148;2023-05-27T04:07:44;13.73;;;8.20;;
71303;SDS011;59091;47.446;19.148;2023-05-27T04:10:09;11.93;;;8.40;;
71303;SDS011;59091;47.446;19.148;2023-05-27T04:12:35;14.25;;;8.00;;
71303;SDS011;59091;47.446;19.148;2023-05-27T04:15:01;13.70;;;8.15;;
71303;SDS011;59091;47.446;19.148;2023-05-27T04:17:26;10.75;;;7.75;;
71303;SDS011;59091;47.446;19.148;2023-05-27T04:19:52;12.57;;;8.10;;
71303;SDS011;59091;47.446;19.148;2023-05-27T04:22:17;11.55;;;7.45;;
71303;SDS011;59091;47.446;19.148;2023-05-27T04:24:43;14.10;;;7.82;;
71303;SDS011;59091;47.446;19.148;2023-05-27T04:27:08;12.55;;;7.72;;
71303;SDS011;59091;47.446;19.148;2023-05-27T04:29:34;13.68;;;7.95;;
71303;SDS011;59091;47.446;19.148;2023-05-27T04:32:00;13.30;;;8.32;;
71303;SDS011;59091;47.446;19.148;2023-05-27T04:34:26;9.57;;;7.97;;
71303;SDS011;59091;47.446;19.148;2023-05-27T04:36:51;9.05;;;7.32;;
71303;SDS011;59091;47.446;19.148;2023-05-27T04:39:16;13.18;;;7.95;;
71303;SDS011;59091;47.446;19.148;2023-05-27T04:41:42;15.07;;;7.72;;
71303;SDS011;59091;47.446;19.148;2023-05-27T04:44:10;10.93;;;7.68;;
71303;SDS011;59091;47.446;19.148;2023-05-27T04:46:36;9.25;;;7.30;;
71303;SDS011;59091;47.446;19.148;2023-05-27T04:49:04;12.73;;;7.50;;
71303;SDS011;59091;47.446;19.148;2023-05-27T04:51:29;10.43;;;7.45;;
71303;SDS011;59091;47.446;19.148;2023-05-27T04:53:55;11.88;;;7.95;;
71303;SDS011;59091;47.446;19.148;2023-05-27T04:56:21;11.85;;;7.32;;
71303;SDS011;59091;47.446;19.148;2023-05-27T04:58:46;13.05;;;7.18;;
71303;SDS011;59091;47.446;19.148;2023-05-27T05:01:13;9.18;;;7.45;;
71303;SDS011;59091;47.446;19.148;2023-05-27T05:03:43;14.50;;;6.88;;
71303;SDS011;59091;47.446;19.148;2023-05-27T05:06:18;15.57;;;7.40;;
71303;SDS011;59091;47.446;19.148;2023-05-27T05:08:44;10.90;;;7.00;;
71303;SDS011;59091;47.446;19.148;2023-05-27T05:11:10;9.73;;;6.80;;
71303;SDS011;59091;47.446;19.148;2023-05-27T05:13:35;11.15;;;6.70;;
71303;SDS011;59091;47.446;19.148;2023-05-27T05:16:00;10.77;;;7.22;;
71303;SDS011;59091;47.446;19.148;2023-05-27T05:18:26;12.50;;;6.53;;
71303;SDS011;59091;47.446;19.148;2023-05-27T05:20:51;10.77;;;7.32;;
71303;SDS011;59091;47.446;19.148;2023-05-27T05:23:17;11.13;;;7.35;;
71303;SDS011;59091;47.446;19.148;2023-05-27T05:25:42;13.10;;;7.20;;
71303;SDS011;59091;47.446;19.148;2023-05-27T05:28:08;12.50;;;7.20;;
71303;SDS011;59091;47.446;19.148;2023-05-27T05:30:33;10.55;;;6.80;;
71303;SDS011;59091;47.446;19.148;2023-05-27T05:32:59;11.10;;;6.78;;
71303;SDS011;59091;47.446;19.148;2023-05-27T05:35:24;10.82;;;6.65;;
71303;SDS011;59091;47.446;19.148;2023-05-27T05:37:50;9.25;;;6.70;;
71303;SDS011;59091;47.446;19.148;2023-05-27T05:40:15;12.85;;;7.38;;
71303;SDS011;59091;47.446;19.148;2023-05-27T05:42:41;12.10;;;6.55;;
71303;SDS011;59091;47.446;19.148;2023-05-27T05:45:06;12.00;;;7.15;;
71303;SDS011;59091;47.446;19.148;2023-05-27T05:47:32;11.63;;;7.03;;
71303;SDS011;59091;47.446;19.148;2023-05-27T05:49:58;9.85;;;6.50;;
71303;SDS011;59091;47.446;19.148;2023-05-27T05:52:23;11.38;;;6.57;;
71303;SDS011;59091;47.446;19.148;2023-05-27T05:54:49;9.70;;;6.38;;
71303;SDS011;59091;47.446;19.148;2023-05-27T05:57:14;12.77;;;6.43;;
71303;SDS011;59091;47.446;19.148;2023-05-27T05:59:40;10.00;;;6.20;;
71303;SDS011;59091;47.446;19.148;2023-05-27T06:02:06;8.10;;;5.75;;
71303;SDS011;59091;47.446;19.148;2023-05-27T06:04:31;13.63;;;6.00;;
71303;SDS011;59091;47.446;19.148;2023-05-27T06:06:57;11.18;;;6.00;;
71303;SDS011;59091;47.446;19.148;2023-05-27T06:09:22;10.20;;;6.25;;
71303;SDS011;59091;47.446;19.148;2023-05-27T06:11:48;12.38;;;5.95;;
71303;SDS011;59091;47.446;19.148;2023-05-27T06:14:13;10.40;;;6.38;;
71303;SDS011;59091;47.446;19.148;2023-05-27T06:16:39;18.55;;;6.25;;
71303;SDS011;59091;47.446;19.148;2023-05-27T06:19:05;18.83;;;6.05;;
71303;SDS011;59091;47.446;19.148;2023-05-27T06:21:31;11.40;;;5.80;;
71303;SDS011;59091;47.446;19.148;2023-05-27T06:23:57;9.63;;;5.95;;
71303;SDS011;59091;47.446;19.148;2023-05-27T06:26:24;13.15;;;6.15;;
71303;SDS011;59091;47.446;19.148;2023-05-27T06:28:49;13.60;;;6.25;;
71303;SDS011;59091;47.446;19.148;2023-05-27T06:31:15;11.55;;;6.07;;
71303;SDS011;59091;47.446;19.148;2023-05-27T06:33:41;11.32;;;5.60;;
71303;SDS011;59091;47.446;19.148;2023-05-27T06:36:06;7.65;;;5.50;;
71303;SDS011;59091;47.446;19.148;2023-05-27T06:38:32;9.45;;;6.00;;
71303;SDS011;59091;47.446;19.148;2023-05-27T06:40:57;11.00;;;5.70;;
71303;SDS011;59091;47.446;19.148;2023-05-27T06:43:23;8.07;;;5.20;;
71303;SDS011;59091;47.446;19.148;2023-05-27T06:45:48;11.68;;;5.72;;
71303;SDS011;59091;47.446;19.148;2023-05-27T06:48:14;9.80;;;5.90;;
71303;SDS011;59091;47.446;19.148;2023-05-27T06:50:39;10.75;;;5.35;;
71303;SDS011;59091;47.446;19.148;2023-05-27T06:53:05;10.13;;;5.10;;
71303;SDS011;59091;47.446;19.148;2023-05-27T06:55:30;7.72;;;4.95;;
71303;SDS011;59091;47.446;19.148;2023-05-27T06:57:57;12.68;;;6.20;;
71303;SDS011;59091;47.446;19.148;2023-05-27T07:00:22;8.75;;;5.05;;
71303;SDS011;59091;47.446;19.148;2023-05-27T07:02:48;10.45;;;4.50;;
71303;SDS011;59091;47.446;19.148;2023-05-27T07:05:13;11.57;;;5.13;;
71303;SDS011;59091;47.446;19.148;2023-05-27T07:07:38;15.75;;;5.80;;
71303;SDS011;59091;47.446;19.148;2023-05-27T07:10:04;8.10;;;5.15;;
71303;SDS011;59091;47.446;19.148;2023-05-27T07:12:30;9.73;;;5.00;;
71303;SDS011;59091;47.446;19.148;2023-05-27T07:14:55;9.77;;;5.20;;
71303;SDS011;59091;47.446;19.148;2023-05-27T07:17:21;17.45;;;5.65;;
71303;SDS011;59091;47.446;19.148;2023-05-27T07:19:46;17.25;;;5.90;;
71303;SDS011;59091;47.446;19.148;2023-05-27T07:22:12;8.52;;;4.70;;
71303;SDS011;59091;47.446;19.148;2023-05-27T07:24:37;9.52;;;4.85;;
71303;SDS011;59091;47.446;19.148;2023-05-27T07:27:02;9.98;;;4.47;;
71303;SDS011;59091;47.446;19.148;2023-05-27T07:29:28;11.50;;;4.50;;
71303;SDS011;59091;47.446;19.148;2023-05-27T07:31:54;11.88;;;4.25;;
71303;SDS011;59091;47.446;19.148;2023-05-27T07:34:19;9.82;;;4.55;;
71303;SDS011;59091;47.446;19.148;2023-05-27T07:36:46;12.93;;;4.55;;
71303;SDS011;59091;47.446;19.148;2023-05-27T07:39:11;7.13;;;4.03;;
71303;SDS011;59091;47.446;19.148;2023-05-27T07:41:37;9.55;;;4.32;;
71303;SDS011;59091;47.446;19.148;2023-05-27T07:44:02;7.00;;;4.20;;
71303;SDS011;59091;47.446;19.148;2023-05-27T07:46:28;10.65;;;4.53;;
71303;SDS011;59091;47.446;19.148;2023-05-27T07:48:53;9.15;;;4.10;;
71303;SDS011;59091;47.446;19.148;2023-05-27T07:51:19;9.93;;;4.75;;
71303;SDS011;59091;47.446;19.148;2023-05-27T07:53:44;9.32;;;4.13;;
71303;SDS011;59091;47.446;19.148;2023-05-27T07:56:10;9.45;;;4.25;;
71303;SDS011;59091;47.446;19.148;2023-05-27T07:58:35;8.23;;;4.30;;
71303;SDS011;59091;47.446;19.148;2023-05-27T08:01:01;6.10;;;4.43;;
71303;SDS011;59091;47.446;19.148;2023-05-27T08:03:26;11.77;;;4.88;;
71303;SDS011;59091;47.446;19.148;2023-05-27T08:05:51;7.82;;;4.78;;
71303;SDS011;59091;47.446;19.148;2023-05-27T08:08:17;10.77;;;4.35;;
71303;SDS011;59091;47.446;19.148;2023-05-27T08:10:42;6.40;;;4.15;;
71303;SDS011;59091;47.446;19.148;2023-05-27T08:13:09;9.68;;;4.88;;
71303;SDS011;59091;47.446;19.148;2023-05-27T08:15:35;6.70;;;4.45;;
71303;SDS011;59091;47.446;19.148;2023-05-27T08:18:00;7.10;;;4.13;;
71303;SDS011;59091;47.446;19.148;2023-05-27T08:20:26;9.77;;;4.68;;
71303;SDS011;59091;47.446;19.148;2023-05-27T08:22:52;9.75;;;4.30;;
71303;SDS011;59091;47.446;19.148;2023-05-27T08:25:18;5.78;;;4.30;;
71303;SDS011;59091;47.446;19.148;2023-05-27T08:27:50;7.28;;;4.30;;
71303;SDS011;59091;47.446;19.148;2023-05-27T08:30:26;5.93;;;4.35;;
71303;SDS011;59091;47.446;19.148;2023-05-27T08:32:53;5.90;;;4.50;;
71303;SDS011;59091;47.446;19.148;2023-05-27T08:35:19;7.70;;;4.60;;
71303;SDS011;59091;47.446;19.148;2023-05-27T08:37:45;6.55;;;4.20;;
71303;SDS011;59091;47.446;19.148;2023-05-27T08:40:12;6.95;;;4.50;;
71303;SDS011;59091;47.446;19.148;2023-05-27T08:42:39;10.10;;;4.68;;
71303;SDS011;59091;47.446;19.148;2023-05-27T08:45:05;9.25;;;4.60;;
71303;SDS011;59091;47.446;19.148;2023-05-27T08:47:32;9.60;;;4.90;;
71303;SDS011;59091;47.446;19.148;2023-05-27T08:49:57;7.30;;;4.25;;
71303;SDS011;59091;47.446;19.148;2023-05-27T08:52:23;8.68;;;4.63;;
71303;SDS011;59091;47.446;19.148;2023-05-27T08:54:51;7.97;;;4.15;;
71303;SDS011;59091;47.446;19.148;2023-05-27T08:57:19;7.97;;;4.13;;
71303;SDS011;59091;47.446;19.148;2023-05-27T08:59:49;10.43;;;4.95;;
71303;SDS011;59091;47.446;19.148;2023-05-27T09:02:15;6.25;;;3.90;;
71303;SDS011;59091;47.446;19.148;2023-05-27T09:04:45;13.18;;;5.07;;
71303;SDS011;59091;47.446;19.148;2023-05-27T09:07:11;8.77;;;4.10;;
71303;SDS011;59091;47.446;19.148;2023-05-27T09:09:38;9.18;;;4.47;;
71303;SDS011;59091;47.446;19.148;2023-05-27T09:12:04;10.75;;;4.38;;
71303;SDS011;59091;47.446;19.148;2023-05-27T09:14:31;13.43;;;4.68;;
71303;SDS011;59091;47.446;19.148;2023-05-27T09:16:57;7.93;;;4.80;;
71303;SDS011;59091;47.446;19.148;2023-05-27T09:19:22;8.95;;;4.25;;
71303;SDS011;59091;47.446;19.148;2023-05-27T09:21:51;7.45;;;4.70;;
71303;SDS011;59091;47.446;19.148;2023-05-27T09:24:17;9.80;;;4.47;;
71303;SDS011;59091;47.446;19.148;2023-05-27T09:26:43;8.93;;;4.40;;
71303;SDS011;59091;47.446;19.148;2023-05-27T09:29:08;6.45;;;4.47;;
71303;SDS011;59091;47.446;19.148;2023-05-27T09:31:40;10.95;;;4.70;;
71303;SDS011;59091;47.446;19.148;2023-05-27T09:34:09;7.10;;;4.70;;
71303;SDS011;59091;47.446;19.148;2023-05-27T09:36:41;14.32;;;5.00;;
71303;SDS011;59091;47.446;19.148;2023-05-27T09:39:11;7.50;;;4.68;;
71303;SDS011;59091;47.446;19.148;2023-05-27T09:41:38;10.32;;;4.72;;
71303;SDS011;59091;47.446;19.148;2023-05-27T09:44:04;11.95;;;4.90;;
71303;SDS011;59091;47.446;19.148;2023-05-27T09:46:31;10.88;;;4.55;;
71303;SDS011;59091;47.446;19.148;2023-05-27T09:48:57;7.53;;;4.93;;
71303;SDS011;59091;47.446;19.148;2023-05-27T09:51:23;13.82;;;4.80;;
71303;SDS011;59091;47.446;19.148;2023-05-27T09:53:50;6.35;;;4.60;;
71303;SDS011;59091;47.446;19.148;2023-05-27T09:56:18;7.72;;;4.72;;
71303;SDS011;59091;47.446;19.148;2023-05-27T09:58:44;9.40;;;4.45;;
71303;SDS011;59091;47.446;19.148;2023-05-27T10:01:10;13.05;;;5.13;;
71303;SDS011;59091;47.446;19.148;2023-05-27T10:03:36;9.00;;;4.80;;
71303;SDS011;59091;47.446;19.148;2023-05-27T10:06:02;10.07;;;5.35;;
71303;SDS011;59091;47.446;19.148;2023-05-27T10:08:29;7.30;;;4.65;;
71303;SDS011;59091;47.446;19.148;2023-05-27T10:10:55;6.65;;;4.85;;
71303;SDS011;59091;47.446;19.148;2023-05-27T10:13:21;7.97;;;4.85;;
71303;SDS011;59091;47.446;19.148;2023-05-27T10:15:51;7.40;;;4.88;;
71303;SDS011;59091;47.446;19.148;2023-05-27T10:18:24;7.53;;;5.07;;
71303;SDS011;59091;47.446;19.148;2023-05-27T10:20:52;7.03;;;4.53;;
71303;SDS011;59091;47.446;19.148;2023-05-27T10:23:19;8.45;;;4.72;;
71303;SDS011;59091;47.446;19.148;2023-05-27T10:25:50;14.88;;;5.32;;
71303;SDS011;59091;47.446;19.148;2023-05-27T10:28:29;8.05;;;4.90;;
71303;SDS011;59091;47.446;19.148;2023-05-27T10:31:07;7.25;;;4.68;;
71303;SDS011;59091;47.446;19.148;2023-05-27T10:33:37;9.30;;;5.20;;
71303;SDS011;59091;47.446;19.148;2023-05-27T10:36:21;12.38;;;4.95;;
71303;SDS011;59091;47.446;19.148;2023-05-27T10:38:56;5.30;;;4.32;;
71303;SDS011;59091;47.446;19.148;2023-05-27T10:41:23;10.80;;;5.03;;
71303;SDS011;59091;47.446;19.148;2023-05-27T10:43:55;10.90;;;5.18;;
71303;SDS011;59091;47.446;19.148;2023-05-27T10:46:25;8.18;;;4.50;;
71303;SDS011;59091;47.446;19.148;2023-05-27T10:48:51;7.45;;;4.80;;
71303;SDS011;59091;47.446;19.148;2023-05-27T10:51:17;8.60;;;5.28;;
71303;SDS011;59091;47.446;19.148;2023-05-27T10:53:42;7.30;;;5.07;;
71303;SDS011;59091;47.446;19.148;2023-05-27T10:56:07;10.13;;;5.03;;
71303;SDS011;59091;47.446;19.148;2023-05-27T10:58:37;6.65;;;4.68;;
71303;SDS011;59091;47.446;19.148;2023-05-27T11:01:10;7.85;;;4.85;;
71303;SDS011;59091;47.446;19.148;2023-05-27T11:03:41;6.63;;;4.97;;
71303;SDS011;59091;47.446;19.148;2023-05-27T11:06:08;8.85;;;5.22;;
71303;SDS011;59091;47.446;19.148;2023-05-27T11:08:35;9.18;;;4.72;;
71303;SDS011;59091;47.446;19.148;2023-05-27T11:11:03;6.25;;;4.72;;
71303;SDS011;59091;47.446;19.148;2023-05-27T11:13:35;8.77;;;4.72;;
71303;SDS011;59091;47.446;19.148;2023-05-27T11:16:04;6.35;;;4.80;;
71303;SDS011;59091;47.446;19.148;2023-05-27T11:18:40;10.05;;;4.80;;
71303;SDS011;59091;47.446;19.148;2023-05-27T11:21:08;9.95;;;5.63;;
71303;SDS011;59091;47.446;19.148;2023-05-27T11:23:39;13.88;;;5.03;;
71303;SDS011;59091;47.446;19.148;2023-05-27T11:26:20;12.13;;;5.40;;
71303;SDS011;59091;47.446;19.148;2023-05-27T11:28:50;8.32;;;4.50;;
71303;SDS011;59091;47.446;19.148;2023-05-27T11:31:18;8.77;;;4.75;;
71303;SDS011;59091;47.446;19.148;2023-05-27T11:33:46;11.30;;;5.70;;
71303;SDS011;59091;47.446;19.148;2023-05-27T11:36:14;12.57;;;5.13;;
71303;SDS011;59091;47.446;19.148;2023-05-27T11:38:57;14.50;;;5.60;;
71303;SDS011;59091;47.446;19.148;2023-05-27T11:41:28;6.85;;;4.97;;
71303;SDS011;59091;47.446;19.148;2023-05-27T11:43:55;11.70;;;5.13;;
71303;SDS011;59091;47.446;19.148;2023-05-27T11:46:22;8.32;;;5.13;;
71303;SDS011;59091;47.446;19.148;2023-05-27T11:48:48;6.50;;;5.20;;
71303;SDS011;59091;47.446;19.148;2023-05-27T11:51:14;15.35;;;6.82;;
71303;SDS011;59091;47.446;19.148;2023-05-27T11:53:40;10.60;;;5.03;;
71303;SDS011;59091;47.446;19.148;2023-05-27T11:56:09;11.95;;;5.03;;
71303;SDS011;59091;47.446;19.148;2023-05-27T11:58:35;9.57;;;5.53;;
71303;SDS011;59091;47.446;19.148;2023-05-27T12:01:02;7.85;;;5.35;;
71303;SDS011;59091;47.446;19.148;2023-05-27T12:03:29;11.85;;;5.38;;
71303;SDS011;59091;47.446;19.148;2023-05-27T12:05:54;11.27;;;4.68;;
71303;SDS011;59091;47.446;19.148;2023-05-27T12:08:20;11.23;;;5.13;;
71303;SDS011;59091;47.446;19.148;2023-05-27T12:10:45;7.72;;;5.15;;
71303;SDS011;59091;47.446;19.148;2023-05-27T12:13:15;9.15;;;5.35;;
71303;SDS011;59091;47.446;19.148;2023-05-27T12:15:40;6.47;;;4.80;;
71303;SDS011;59091;47.446;19.148;2023-05-27T12:18:06;10.63;;;5.28;;
71303;SDS011;59091;47.446;19.148;2023-05-27T12:20:31;11.25;;;5.28;;
71303;SDS011;59091;47.446;19.148;2023-05-27T12:22:57;5.50;;;4.80;;
71303;SDS011;59091;47.446;19.148;2023-05-27T12:25:23;10.25;;;5.80;;
71303;SDS011;59091;47.446;19.148;2023-05-27T12:27:49;7.57;;;5.10;;
71303;SDS011;59091;47.446;19.148;2023-05-27T12:30:14;7.82;;;4.57;;
71303;SDS011;59091;47.446;19.148;2023-05-27T12:32:39;6.32;;;4.53;;
71303;SDS011;59091;47.446;19.148;2023-05-27T12:35:07;9.38;;;5.15;;
71303;SDS011;59091;47.446;19.148;2023-05-27T12:37:32;7.15;;;4.75;;
71303;SDS011;59091;47.446;19.148;2023-05-27T12:39:58;11.63;;;5.00;;
71303;SDS011;59091;47.446;19.148;2023-05-27T12:42:23;8.52;;;4.50;;
71303;SDS011;59091;47.446;19.148;2023-05-27T12:44:49;10.07;;;4.90;;
71303;SDS011;59091;47.446;19.148;2023-05-27T12:47:14;6.05;;;4.97;;
71303;SDS011;59091;47.446;19.148;2023-05-27T12:49:39;8.15;;;5.18;;
71303;SDS011;59091;47.446;19.148;2023-05-27T12:52:06;7.03;;;4.93;;
71303;SDS011;59091;47.446;19.148;2023-05-27T12:54:32;8.50;;;4.85;;
71303;SDS011;59091;47.446;19.148;2023-05-27T12:56:58;7.68;;;5.00;;
71303;SDS011;59091;47.446;19.148;2023-05-27T12:59:23;6.88;;;4.40;;
71303;SDS011;59091;47.446;19.148;2023-05-27T13:01:48;8.18;;;4.53;;
71303;SDS011;59091;47.446;19.148;2023-05-27T13:04:14;14.70;;;4.90;;
71303;SDS011;59091;47.446;19.148;2023-05-27T13:06:40;11.00;;;4.70;;
71303;SDS011;59091;47.446;19.148;2023-05-27T13:09:06;6.00;;;4.15;;
71303;SDS011;59091;47.446;19.148;2023-05-27T13:11:33;7.75;;;4.43;;
71303;SDS011;59091;47.446;19.148;2023-05-27T13:13:58;7.90;;;4.05;;
71303;SDS011;59091;47.446;19.148;2023-05-27T13:16:24;8.07;;;4.63;;
71303;SDS011;59091;47.446;19.148;2023-05-27T13:18:49;8.93;;;4.57;;
71303;SDS011;59091;47.446;19.148;2023-05-27T13:21:15;7.22;;;4.70;;
71303;SDS011;59091;47.446;19.148;2023-05-27T13:23:40;6.95;;;4.68;;
71303;SDS011;59091;47.446;19.148;2023-05-27T13:26:06;7.90;;;4.03;;
71303;SDS011;59091;47.446;19.148;2023-05-27T13:28:31;9.05;;;5.15;;
71303;SDS011;59091;47.446;19.148;2023-05-27T13:30:57;8.32;;;4.63;;
71303;SDS011;59091;47.446;19.148;2023-05-27T13:33:23;7.78;;;5.10;;
71303;SDS011;59091;47.446;19.148;2023-05-27T13:35:48;10.93;;;4.80;;
71303;SDS011;59091;47.446;19.148;2023-05-27T13:38:15;10.52;;;4.82;;
71303;SDS011;59091;47.446;19.148;2023-05-27T13:40:42;12.15;;;5.40;;
71303;SDS011;59091;47.446;19.148;2023-05-27T13:43:07;8.02;;;4.72;;
71303;SDS011;59091;47.446;19.148;2023-05-27T13:45:33;6.28;;;4.78;;
71303;SDS011;59091;47.446;19.148;2023-05-27T13:47:59;6.80;;;4.45;;
71303;SDS011;59091;47.446;19.148;2023-05-27T13:50:24;7.85;;;5.40;;
71303;SDS011;59091;47.446;19.148;2023-05-27T13:52:50;8.43;;;5.22;;
71303;SDS011;59091;47.446;19.148;2023-05-27T13:55:15;7.75;;;4.95;;
71303;SDS011;59091;47.446;19.148;2023-05-27T13:57:41;9.55;;;5.03;;
71303;SDS011;59091;47.446;19.148;2023-05-27T14:00:08;10.35;;;5.00;;
71303;SDS011;59091;47.446;19.148;2023-05-27T14:02:34;8.35;;;5.13;;
71303;SDS011;59091;47.446;19.148;2023-05-27T14:04:59;11.70;;;5.55;;
71303;SDS011;59091;47.446;19.148;2023-05-27T14:07:27;11.07;;;5.25;;
71303;SDS011;59091;47.446;19.148;2023-05-27T14:09:54;9.25;;;5.38;;
71303;SDS011;59091;47.446;19.148;2023-05-27T14:12:20;9.10;;;5.30;;
71303;SDS011;59091;47.446;19.148;2023-05-27T14:14:45;14.07;;;4.93;;
71303;SDS011;59091;47.446;19.148;2023-05-27T14:17:10;10.23;;;5.38;;
71303;SDS011;59091;47.446;19.148;2023-05-27T14:19:36;8.73;;;6.07;;
71303;SDS011;59091;47.446;19.148;2023-05-27T14:22:01;11.20;;;5.57;;
71303;SDS011;59091;47.446;19.148;2023-05-27T14:24:27;8.02;;;5.78;;
71303;SDS011;59091;47.446;19.148;2023-05-27T14:26:53;9.43;;;5.75;;
71303;SDS011;59091;47.446;19.148;2023-05-27T14:29:18;11.00;;;5.28;;